createdAt,value
2018-02-11T00:01:10.269Z,13.05
2018-02-11T00:03:38.573Z,13.85
2018-02-11T00:06:06.138Z,11.23
2018-02-11T00:08:33.674Z,10.35
2018-02-11T00:11:02.005Z,12.47
2018-02-11T00:13:29.553Z,12.10
2018-02-11T00:15:57.160Z,11.75
2018-02-11T00:18:25.473Z,11.90
2018-02-11T00:20:53.040Z,12.15
2018-02-11T00:23:20.567Z,12.70
2018-02-11T00:25:48.902Z,14.10
2018-02-11T00:28:16.443Z,17.73
2018-02-11T00:30:44.007Z,13.83
2018-02-11T00:33:11.550Z,13.37
2018-02-11T00:35:39.114Z,14.17
2018-02-11T00:38:09.520Z,14.07
2018-02-11T00:40:37.075Z,13.83
2018-02-11T00:43:05.378Z,13.73
2018-02-11T00:45:32.933Z,14.57
2018-02-11T00:48:00.462Z,12.97
2018-02-11T00:50:28.782Z,13.30
2018-02-11T00:52:56.309Z,13.60
2018-02-11T00:55:24.602Z,13.30
2018-02-11T00:57:52.153Z,13.00
2018-02-11T01:00:19.685Z,12.53
2018-02-11T01:02:48.018Z,12.80
2018-02-11T01:05:15.542Z,14.37
2018-02-11T01:07:43.868Z,13.40
2018-02-11T01:10:11.403Z,12.20
2018-02-11T01:12:38.961Z,12.23
2018-02-11T01:15:12.984Z,11.68
2018-02-11T01:17:40.573Z,12.30
2018-02-11T01:20:08.109Z,12.30
2018-02-11T01:22:35.677Z,13.20
2018-02-11T01:25:03.206Z,9.82
2018-02-11T01:27:30.789Z,11.48
2018-02-11T01:29:58.342Z,12.20
2018-02-11T01:32:25.910Z,12.65
2018-02-11T01:34:53.446Z,11.45
2018-02-11T01:37:21.006Z,11.37
2018-02-11T01:39:48.624Z,11.88
2018-02-11T01:42:16.186Z,13.00
2018-02-11T01:44:43.722Z,12.30
2018-02-11T01:47:11.290Z,11.30
2018-02-11T01:49:38.835Z,11.30
2018-02-11T01:52:06.398Z,11.37
2018-02-11T01:54:33.969Z,11.35
2018-02-11T01:57:01.496Z,10.37
2018-02-11T01:59:29.049Z,11.10
2018-02-11T02:01:56.581Z,9.60
2018-02-11T02:04:24.909Z,9.17
2018-02-11T02:06:52.446Z,10.10
2018-02-11T02:09:20.138Z,9.60
2018-02-11T02:11:47.675Z,9.30
2018-02-11T02:14:15.230Z,9.87
2018-02-11T02:16:42.761Z,10.03
2018-02-11T02:19:11.083Z,8.50
2018-02-11T02:21:38.636Z,8.83
2018-02-11T02:24:06.187Z,9.10
2018-02-11T02:26:33.759Z,9.30
2018-02-11T02:29:01.361Z,8.37
2018-02-11T02:31:28.891Z,8.47
2018-02-11T02:33:56.451Z,8.60
2018-02-11T02:36:23.986Z,8.38
2018-02-11T02:38:51.717Z,8.90
2018-02-11T02:41:20.014Z,8.70
2018-02-11T02:43:47.554Z,9.38
2018-02-11T02:46:15.886Z,9.47
2018-02-11T02:48:43.423Z,8.20
2018-02-11T02:51:10.974Z,9.23
2018-02-11T02:53:38.503Z,7.47
2018-02-11T02:56:06.052Z,8.70
2018-02-11T02:58:33.583Z,8.77
2018-02-11T03:01:01.142Z,8.20
2018-02-11T03:03:28.669Z,7.53
2018-02-11T03:05:56.229Z,8.27
2018-02-11T03:08:23.769Z,7.32
2018-02-11T03:10:52.103Z,7.63
2018-02-11T03:13:19.646Z,7.62
2018-02-11T03:15:47.198Z,8.97
2018-02-11T03:18:14.730Z,7.65
2018-02-11T03:20:43.064Z,7.63
2018-02-11T03:23:10.606Z,7.30
2018-02-11T03:25:38.162Z,7.37
2018-02-11T03:28:05.689Z,7.28
2018-02-11T03:30:34.011Z,7.07
2018-02-11T03:33:01.551Z,7.15
2018-02-11T03:35:29.101Z,9.10
2018-02-11T03:37:56.629Z,8.30
2018-02-11T03:40:24.186Z,9.30
2018-02-11T03:42:51.717Z,7.80
2018-02-11T03:45:19.279Z,8.20
2018-02-11T03:47:46.818Z,7.00
2018-02-11T03:50:14.377Z,7.85
2018-02-11T03:52:41.915Z,7.73
2018-02-11T03:55:09.478Z,7.80
2018-02-11T03:57:37.012Z,6.07
2018-02-11T04:00:05.339Z,7.00
2018-02-11T04:02:32.867Z,6.07
2018-02-11T04:05:00.421Z,7.47
2018-02-11T04:07:28.706Z,7.00
2018-02-11T04:09:56.271Z,8.32
2018-02-11T04:12:23.825Z,8.15
2018-02-11T04:14:51.390Z,8.40
2018-02-11T04:17:18.907Z,7.10
2018-02-11T04:19:46.461Z,7.57
2018-02-11T04:22:13.994Z,8.32
2018-02-11T04:24:41.546Z,8.80
2018-02-11T04:27:09.083Z,7.90
2018-02-11T04:29:36.623Z,8.57
2018-02-11T04:32:04.954Z,8.23
2018-02-11T04:34:32.477Z,8.87
2018-02-11T04:37:00.032Z,8.63
2018-02-11T04:39:28.322Z,9.40
2018-02-11T04:41:55.874Z,8.80
2018-02-11T04:44:23.413Z,8.03
2018-02-11T04:46:50.971Z,7.90
2018-02-11T04:49:19.270Z,8.27
2018-02-11T04:51:46.827Z,8.27
2018-02-11T04:54:14.361Z,8.40
2018-02-11T04:56:41.918Z,10.63
2018-02-11T04:59:09.452Z,9.03
2018-02-11T05:01:57.284Z,7.60
2018-02-11T05:04:24.817Z,9.20
2018-02-11T05:06:52.369Z,7.50
2018-02-11T05:09:19.897Z,7.33
2018-02-11T05:11:47.449Z,8.40
2018-02-11T05:14:14.982Z,7.20
2018-02-11T05:16:42.535Z,8.20
2018-02-11T05:19:10.058Z,8.03
2018-02-11T05:21:37.605Z,8.10
2018-02-11T05:24:05.906Z,8.40
2018-02-11T05:26:33.480Z,9.00
2018-02-11T05:29:01.016Z,8.30
2018-02-11T05:31:28.574Z,8.87
2018-02-11T05:33:56.106Z,8.50
2018-02-11T05:36:23.670Z,9.43
2018-02-11T05:38:51.977Z,8.57
2018-02-11T05:41:19.526Z,7.90
2018-02-11T05:43:47.822Z,7.30
2018-02-11T05:46:15.369Z,8.60
2018-02-11T05:48:43.662Z,8.10
2018-02-11T05:51:11.218Z,7.77
2018-02-11T05:53:38.739Z,8.30
2018-02-11T05:56:06.291Z,8.40
2018-02-11T05:58:33.822Z,8.90
2018-02-11T06:01:01.385Z,8.47
2018-02-11T06:03:28.917Z,8.33
2018-02-11T06:05:56.520Z,8.43
2018-02-11T06:08:24.026Z,8.60
2018-02-11T06:10:51.585Z,9.30
2018-02-11T06:13:19.123Z,8.40
2018-02-11T06:15:47.448Z,7.90
2018-02-11T06:18:14.969Z,7.80
2018-02-11T06:20:42.547Z,7.77
2018-02-11T06:23:10.078Z,7.37
2018-02-11T06:25:37.633Z,9.60
2018-02-11T06:28:05.162Z,9.27
2018-02-11T06:30:32.720Z,9.67
2018-02-11T06:53:05.217Z,10.60
2018-02-11T06:55:32.777Z,10.23
2018-02-11T06:58:00.318Z,9.68
2018-02-11T07:00:27.929Z,10.07
2018-02-11T07:02:55.467Z,9.00
2018-02-11T07:05:23.954Z,7.53
2018-02-11T07:07:51.481Z,9.87
2018-02-11T07:10:19.031Z,10.13
2018-02-11T07:12:46.561Z,9.27
2018-02-11T07:15:14.102Z,9.60
2018-02-11T07:17:41.833Z,9.13
2018-02-11T07:20:09.362Z,9.20
2018-02-11T07:22:37.705Z,8.00
2018-02-11T07:25:05.243Z,8.45
2018-02-11T07:27:32.794Z,8.63
2018-02-11T07:30:00.326Z,7.30
2018-02-11T07:32:27.886Z,8.67
2018-02-11T07:34:55.539Z,8.00
2018-02-11T07:37:23.858Z,14.37
2018-02-11T07:39:51.413Z,11.90
2018-02-11T07:42:19.014Z,8.87
2018-02-11T07:44:46.551Z,9.60
2018-02-11T07:47:14.106Z,7.50
2018-02-11T07:49:41.631Z,7.30
2018-02-11T07:52:09.178Z,6.50
2018-02-11T07:54:37.469Z,7.10
2018-02-11T07:57:05.025Z,6.20
2018-02-11T07:59:32.554Z,6.93
2018-02-11T08:02:00.114Z,6.30
2018-02-11T08:04:27.646Z,7.43
2018-02-11T08:06:55.197Z,7.30
2018-02-11T08:09:22.717Z,6.70
2018-02-11T08:11:51.022Z,6.70
2018-02-11T08:14:18.549Z,6.83
2018-02-11T08:16:46.871Z,6.70
2018-02-11T08:19:14.403Z,7.87
2018-02-11T08:21:41.954Z,8.60
2018-02-11T08:24:09.484Z,8.83
2018-02-11T08:26:37.031Z,7.53
2018-02-11T08:29:04.560Z,8.37
2018-02-11T08:31:32.124Z,7.80
2018-02-11T08:33:59.653Z,7.27
2018-02-11T08:36:27.193Z,6.50
2018-02-11T08:38:55.839Z,7.40
2018-02-11T08:41:23.396Z,6.90
2018-02-11T08:43:50.918Z,6.77
2018-02-11T08:46:18.469Z,6.57
2018-02-11T08:48:46.002Z,7.73
2018-02-11T08:51:13.553Z,6.90
2018-02-11T08:53:41.080Z,7.30
2018-02-11T08:56:08.638Z,6.90
2018-02-11T08:58:36.172Z,6.67
2018-02-11T09:01:03.722Z,6.10
2018-02-11T09:03:32.019Z,5.70
2018-02-11T09:05:59.577Z,5.40
2018-02-11T09:08:27.111Z,6.40
2018-02-11T09:10:55.434Z,5.93
2018-02-11T09:13:23.430Z,7.03
2018-02-11T09:15:51.785Z,6.50
2018-02-11T09:18:19.388Z,6.23
2018-02-11T09:20:47.020Z,6.90
2018-02-11T09:23:14.665Z,5.13
2018-02-11T09:25:42.973Z,6.20
2018-02-11T09:28:10.546Z,5.77
2018-02-11T09:30:38.452Z,5.47
2018-02-11T09:33:07.130Z,6.70
2018-02-11T09:35:34.667Z,5.25
2018-02-11T09:38:02.209Z,5.73
2018-02-11T09:40:29.745Z,5.97
2018-02-11T09:42:57.294Z,6.30
2018-02-11T09:45:24.825Z,6.50
2018-02-11T09:47:53.176Z,7.23
2018-02-11T09:50:20.749Z,5.83
2018-02-11T09:52:48.314Z,7.20
2018-02-11T09:55:16.606Z,6.80
2018-02-11T09:57:44.158Z,7.03
2018-02-11T10:00:12.452Z,6.37
2018-02-11T10:02:40.000Z,7.50
2018-02-11T10:05:07.727Z,6.23
2018-02-11T10:07:35.290Z,6.80
2018-02-11T10:10:02.815Z,6.90
2018-02-11T10:12:30.363Z,7.03
2018-02-11T10:14:57.928Z,7.33
2018-02-11T10:17:25.717Z,6.77
2018-02-11T10:19:53.252Z,7.03
2018-02-11T10:22:20.798Z,6.33
2018-02-11T10:24:48.320Z,5.97
2018-02-11T10:27:15.877Z,6.20
2018-02-11T10:29:43.404Z,5.83
2018-02-11T10:32:10.951Z,5.87
2018-02-11T10:34:38.477Z,5.80
2018-02-11T10:37:06.789Z,5.37
2018-02-11T10:39:34.306Z,5.43
2018-02-11T10:42:02.632Z,6.00
2018-02-11T10:44:30.165Z,4.90
2018-02-11T10:46:57.714Z,5.15
2018-02-11T10:49:25.249Z,5.10
2018-02-11T10:51:52.798Z,5.20
2018-02-11T10:54:20.317Z,5.00
2018-02-11T10:56:47.862Z,4.87
2018-02-11T10:59:15.386Z,5.00
2018-02-11T11:01:43.069Z,4.30
2018-02-11T11:04:11.621Z,4.67
2018-02-11T11:06:39.299Z,4.90
2018-02-11T11:09:07.598Z,4.87
2018-02-11T11:11:35.149Z,5.57
2018-02-11T11:14:03.436Z,5.40
2018-02-11T11:16:31.117Z,5.40
2018-02-11T11:18:58.665Z,6.07
2018-02-11T11:21:26.238Z,5.50
2018-02-11T11:23:53.772Z,5.77
2018-02-11T11:26:22.673Z,6.43
2018-02-11T11:28:50.609Z,21.00
2018-02-11T11:31:18.177Z,6.97
2018-02-11T11:33:46.483Z,6.90
2018-02-11T11:36:14.015Z,6.40
2018-02-11T11:38:41.581Z,5.80
2018-02-11T11:41:09.985Z,5.57
2018-02-11T11:43:37.599Z,5.17
2018-02-11T11:46:05.090Z,5.53
2018-02-11T11:48:33.447Z,4.83
2018-02-11T11:51:01.074Z,5.50
2018-02-11T11:53:28.642Z,7.03
2018-02-11T11:55:56.360Z,5.53
2018-02-11T11:58:23.938Z,7.10
2018-02-11T12:00:51.543Z,7.80
2018-02-11T12:03:19.149Z,7.73
2018-02-11T12:05:46.677Z,7.37
2018-02-11T12:08:14.997Z,9.10
2018-02-11T12:10:42.930Z,5.70
2018-02-11T12:13:11.460Z,7.43
2018-02-11T12:15:39.810Z,5.80
2018-02-11T12:18:07.501Z,6.23
2018-02-11T12:20:35.066Z,6.80
2018-02-11T12:23:02.711Z,6.30
2018-02-11T12:25:30.242Z,5.40
2018-02-11T12:27:58.558Z,5.80
2018-02-11T12:30:26.098Z,6.80
2018-02-11T12:32:53.654Z,5.57
2018-02-11T12:35:21.186Z,6.97
2018-02-11T12:37:49.510Z,5.50
2018-02-11T12:40:17.047Z,5.87
2018-02-11T12:42:44.601Z,8.60
2018-02-11T12:45:12.898Z,6.80
2018-02-11T12:47:40.433Z,8.13
2018-02-11T12:50:08.758Z,8.13
2018-02-11T12:52:36.285Z,7.70
2018-02-11T12:55:03.834Z,7.77
2018-02-11T12:57:32.122Z,5.90
2018-02-11T12:59:59.938Z,8.23
2018-02-11T13:02:27.470Z,7.80
2018-02-11T13:04:55.019Z,6.90
2018-02-11T13:07:22.550Z,7.30
2018-02-11T13:09:50.868Z,8.97
2018-02-11T13:12:18.653Z,8.50
2018-02-11T13:14:46.227Z,8.83
2018-02-11T13:17:13.777Z,7.27
2018-02-11T13:19:41.330Z,7.20
2018-02-11T13:22:08.898Z,7.80
2018-02-11T13:24:36.498Z,6.70
2018-02-11T13:27:04.834Z,7.20
2018-02-11T13:29:32.413Z,8.33
2018-02-11T13:31:59.941Z,6.60
2018-02-11T13:34:27.469Z,6.07
2018-02-11T13:36:55.018Z,6.10
2018-02-11T13:39:23.306Z,5.73
2018-02-11T13:41:50.866Z,6.37
2018-02-11T13:44:18.405Z,6.10
2018-02-11T13:46:46.726Z,7.80
2018-02-11T13:49:14.259Z,7.07
2018-02-11T13:51:41.817Z,7.80
2018-02-11T13:54:09.345Z,8.17
2018-02-11T13:56:36.895Z,6.90
2018-02-11T13:59:04.469Z,8.63
2018-02-11T14:01:32.010Z,8.10
2018-02-11T14:03:59.546Z,7.10
2018-02-11T14:06:27.108Z,6.30
2018-02-11T14:08:54.647Z,8.70
2018-02-11T14:11:22.203Z,8.50
2018-02-11T14:13:50.502Z,7.50
2018-02-11T14:16:18.064Z,7.50
2018-02-11T14:18:45.613Z,8.50
2018-02-11T14:21:13.938Z,8.60
2018-02-11T14:23:42.242Z,8.47
2018-02-11T14:26:09.788Z,9.43
2018-02-11T14:28:38.110Z,8.17
2018-02-11T14:31:05.643Z,9.20
2018-02-11T14:33:33.208Z,7.90
2018-02-11T14:36:00.742Z,7.53
2018-02-11T14:38:29.053Z,7.30
2018-02-11T14:40:56.596Z,7.30
2018-02-11T14:43:24.305Z,7.53
2018-02-11T14:45:51.840Z,7.50
2018-02-11T14:48:19.399Z,8.27
2018-02-11T14:50:46.942Z,8.10
2018-02-11T14:53:14.506Z,9.40
2018-02-11T14:55:42.035Z,7.80
2018-02-11T14:58:10.378Z,10.37
2018-02-11T15:00:37.911Z,9.73
2018-02-11T15:03:05.467Z,8.87
2018-02-11T15:05:33.001Z,10.13
2018-02-11T15:08:01.338Z,8.83
2018-02-11T15:10:28.874Z,8.03
2018-02-11T15:12:56.432Z,8.23
2018-02-11T15:15:24.725Z,6.23
2018-02-11T15:17:52.303Z,6.60
2018-02-11T15:20:19.858Z,8.10
2018-02-11T15:22:47.406Z,7.23
2018-02-11T15:25:14.941Z,7.57
2018-02-11T15:27:42.512Z,8.00
2018-02-11T15:30:10.242Z,8.43
2018-02-11T15:32:37.834Z,8.80
2018-02-11T15:35:05.402Z,8.30
2018-02-11T15:37:33.163Z,6.63
2018-02-11T15:40:00.710Z,8.53
2018-02-11T15:42:28.246Z,8.23
2018-02-11T15:44:56.563Z,6.67
2018-02-11T15:47:24.095Z,8.03
2018-02-11T15:49:51.670Z,7.00
2018-02-11T15:52:19.199Z,6.40
2018-02-11T15:54:47.535Z,6.97
2018-02-11T15:57:15.073Z,6.77
2018-02-11T15:59:42.643Z,6.40
2018-02-11T16:02:10.182Z,7.80
2018-02-11T16:04:37.739Z,6.63
2018-02-11T16:07:05.278Z,8.37
2018-02-11T16:09:33.594Z,6.63
2018-02-11T16:12:01.139Z,6.30
2018-02-11T16:14:28.696Z,8.07
2018-02-11T16:16:56.242Z,6.73
2018-02-11T16:19:23.799Z,7.83
2018-02-11T16:21:51.334Z,7.50
2018-02-11T16:24:19.081Z,7.90
2018-02-11T16:26:46.606Z,4.80
2018-02-11T16:29:14.168Z,7.17
2018-02-11T16:31:41.694Z,5.50
2018-02-11T16:34:10.010Z,5.50
2018-02-11T16:36:37.547Z,6.40
2018-02-11T16:39:05.089Z,4.93
2018-02-11T16:41:33.414Z,4.40
2018-02-11T16:44:00.979Z,5.90
2018-02-11T16:46:28.545Z,6.27
2018-02-11T16:48:56.097Z,4.93
2018-02-11T16:51:23.618Z,5.77
2018-02-11T16:53:51.933Z,4.97
2018-02-11T16:56:19.498Z,5.10
2018-02-11T16:58:47.059Z,5.83
2018-02-11T17:01:14.600Z,5.47
2018-02-11T17:03:42.145Z,5.57
2018-02-11T17:06:09.703Z,6.03
2018-02-11T17:08:37.250Z,5.23
2018-02-11T17:11:04.866Z,7.97
2018-02-11T17:13:32.420Z,7.80
2018-02-11T17:15:59.976Z,7.53
2018-02-11T17:18:27.543Z,7.07
2018-02-11T17:20:55.073Z,7.07
2018-02-11T17:23:22.665Z,5.97
2018-02-11T17:25:50.199Z,6.57
2018-02-11T17:28:17.761Z,7.50
2018-02-11T17:30:45.302Z,6.90
2018-02-11T17:33:12.867Z,8.80
2018-02-11T17:35:40.400Z,7.07
2018-02-11T17:38:08.718Z,7.50
2018-02-11T17:40:36.273Z,8.77
2018-02-11T17:43:03.798Z,8.20
2018-02-11T17:45:32.115Z,7.13
2018-02-11T17:47:59.645Z,8.90
2018-02-11T17:50:27.210Z,8.23
2018-02-11T17:52:54.742Z,7.20
2018-02-11T17:55:22.314Z,7.83
2018-02-11T17:57:50.614Z,6.30
2018-02-11T18:00:18.174Z,7.70
2018-02-11T18:02:45.707Z,10.40
2018-02-11T18:05:14.408Z,9.37
2018-02-11T18:07:42.840Z,11.67
2018-02-11T18:10:10.391Z,13.63
2018-02-11T18:12:37.928Z,9.27
2018-02-11T18:15:05.501Z,8.70
2018-02-11T18:17:33.025Z,7.47
2018-02-11T18:20:00.606Z,8.00
2018-02-11T18:22:28.139Z,8.60
2018-02-11T18:24:56.455Z,8.00
2018-02-11T18:27:23.990Z,8.27
2018-02-11T18:29:51.556Z,10.63
2018-02-11T18:32:19.087Z,6.10
2018-02-11T18:34:47.408Z,7.80
2018-02-11T18:37:14.938Z,7.30
2018-02-11T18:39:42.566Z,6.83
2018-02-11T18:42:10.103Z,7.17
2018-02-11T18:44:37.694Z,6.17
2018-02-11T18:47:05.437Z,5.80
2018-02-11T18:49:33.791Z,6.27
2018-02-11T18:52:01.332Z,5.33
2018-02-11T18:54:28.889Z,5.20
2018-02-11T18:56:56.419Z,6.90
2018-02-11T18:59:23.978Z,4.83
2018-02-11T19:01:52.286Z,5.20
2018-02-11T19:04:19.848Z,7.20
2018-02-11T19:06:47.454Z,7.47
2018-02-11T19:09:15.008Z,6.70
2018-02-11T19:11:42.539Z,6.30
2018-02-11T19:14:10.099Z,4.50
2018-02-11T19:16:37.626Z,6.90
2018-02-11T19:19:05.955Z,6.20
2018-02-11T19:21:33.558Z,5.50
2018-02-11T19:24:01.887Z,6.23
2018-02-11T19:26:29.559Z,6.30
2018-02-11T19:28:57.114Z,4.47
2018-02-11T19:31:24.642Z,6.70
2018-02-11T19:33:52.197Z,6.80
2018-02-11T19:36:19.734Z,5.27
2018-02-11T19:38:47.291Z,7.40
2018-02-11T19:41:14.816Z,4.60
2018-02-11T19:43:42.375Z,5.60
2018-02-11T19:46:09.922Z,6.50
2018-02-11T19:48:37.450Z,6.33
2018-02-11T19:51:07.188Z,8.77
2018-02-11T19:53:35.489Z,6.43
2018-02-11T19:56:03.043Z,4.93
2018-02-11T19:58:30.567Z,5.90
2018-02-11T20:00:58.125Z,5.90
2018-02-11T20:03:25.654Z,5.40
2018-02-11T20:05:53.202Z,5.50
2018-02-11T20:08:20.736Z,7.30
2018-02-11T20:10:48.283Z,4.83
2018-02-11T20:13:15.810Z,5.57
2018-02-11T20:15:44.133Z,6.93
2018-02-11T20:18:11.669Z,6.90
2018-02-11T20:20:39.232Z,7.73
2018-02-11T20:23:06.754Z,5.30
2018-02-11T20:25:35.066Z,4.77
2018-02-11T20:28:02.600Z,6.70
2018-02-11T20:30:30.918Z,4.70
2018-02-11T20:32:58.450Z,4.20
2018-02-11T20:35:26.007Z,5.93
2018-02-11T20:37:53.546Z,5.03
2018-02-11T20:40:21.097Z,3.80
2018-02-11T20:42:48.627Z,4.93
2018-02-11T20:45:16.183Z,3.43
2018-02-11T20:47:43.706Z,3.87
2018-02-11T20:50:11.259Z,5.13
2018-02-11T20:52:39.550Z,3.83
2018-02-11T20:55:07.106Z,3.63
2018-02-11T20:57:34.643Z,5.03
2018-02-11T21:00:02.994Z,3.40
2018-02-11T21:02:30.519Z,4.40
2018-02-11T21:04:58.082Z,5.50
2018-02-11T21:07:25.619Z,3.37
2018-02-11T21:09:53.174Z,5.00
2018-02-11T21:12:21.477Z,4.10
2018-02-11T21:14:49.677Z,4.60
2018-02-11T21:17:17.203Z,6.57
2018-02-11T21:19:44.761Z,4.93
2018-02-11T21:22:12.294Z,5.10
2018-02-11T21:24:40.618Z,6.10
2018-02-11T21:27:08.145Z,4.53
2018-02-11T21:29:36.459Z,4.53
2018-02-11T21:32:03.981Z,4.10
2018-02-11T21:34:31.542Z,3.67
2018-02-11T21:36:59.127Z,4.47
2018-02-11T21:39:26.651Z,4.40
2018-02-11T21:41:54.946Z,3.77
2018-02-11T21:44:22.500Z,5.77
2018-02-11T21:46:50.026Z,4.37
2018-02-11T21:49:18.361Z,3.40
2018-02-11T21:51:45.882Z,4.67
2018-02-11T21:54:14.173Z,4.30
2018-02-11T21:56:41.737Z,3.90
2018-02-11T21:59:09.266Z,5.20
2018-02-11T22:01:36.823Z,3.67
2018-02-11T22:04:04.366Z,3.27
2018-02-11T22:06:31.920Z,4.80
2018-02-11T22:08:59.447Z,3.70
2018-02-11T22:11:26.996Z,3.80
2018-02-11T22:13:54.517Z,5.17
2018-02-11T22:16:22.853Z,4.63
2018-02-11T22:18:50.369Z,4.27
2018-02-11T22:21:18.690Z,4.30
2018-02-11T22:23:46.221Z,3.50
2018-02-11T22:26:13.775Z,3.97
2018-02-11T22:28:42.057Z,4.57
2018-02-11T22:31:09.637Z,3.80
2018-02-11T22:33:37.160Z,4.00
2018-02-11T22:36:05.626Z,3.47
2018-02-11T22:38:33.154Z,4.20
2018-02-11T22:41:00.705Z,3.20
2018-02-11T22:43:28.249Z,3.77
2018-02-11T22:45:55.806Z,3.73
2018-02-11T22:48:23.380Z,3.23
2018-02-11T22:50:50.941Z,3.63
2018-02-11T22:53:18.518Z,3.63
2018-02-11T22:55:46.071Z,3.60
2018-02-11T22:58:13.606Z,3.07
2018-02-11T23:00:41.154Z,3.57
2018-02-11T23:03:08.694Z,4.00
2018-02-11T23:05:37.009Z,3.53
2018-02-11T23:08:04.546Z,3.80
2018-02-11T23:10:32.875Z,3.90
2018-02-11T23:13:00.422Z,3.90
2018-02-11T23:15:27.981Z,3.60
2018-02-11T23:17:55.569Z,4.20
2018-02-11T23:20:23.130Z,4.63
2018-02-11T23:22:50.720Z,3.63
2018-02-11T23:25:19.038Z,3.57
2018-02-11T23:27:46.600Z,3.50
2018-02-11T23:30:14.134Z,3.80
2018-02-11T23:32:41.666Z,4.47
2018-02-11T23:35:09.988Z,4.10
2018-02-11T23:37:37.514Z,4.40
2018-02-11T23:40:05.837Z,4.00
2018-02-11T23:42:33.374Z,3.80
2018-02-11T23:45:00.944Z,4.40
2018-02-11T23:47:28.479Z,4.20
2018-02-11T23:49:56.813Z,4.07
2018-02-11T23:52:24.341Z,4.60
2018-02-11T23:54:51.865Z,4.57
2018-02-11T23:57:20.185Z,4.50
2018-02-11T23:59:47.720Z,4.33
